Time;durP1;ratioP1;P1;durP2;ratioP2;P2;SDS_P1;SDS_P2;PMS_P1;PMS_P2;Temp;Humidity;BMP_temperature;BMP_pressure;BME280_temperature;BME280_humidity;BME280_pressure;Samples;Min_cycle;Max_cycle;Signal;HPM_P1;HPM_P2
2021/04/08 00:02:00;;;;;;;16.50;6.70;;;1.50;99.90;;;;;;5038952;28;20501;-73
2021/04/08 00:04:27;;;;;;;22.33;7.80;;;1.60;99.90;;;;;;5041548;28;20229;-74
2021/04/08 00:06:53;;;;;;;20.93;7.80;;;1.60;99.90;;;;;;5040820;28;20726;-74
2021/04/08 00:09:20;;;;;;;21.20;7.87;;;1.60;99.90;;;;;;5040380;28;21077;-73
2021/04/08 00:11:47;;;;;;;16.33;6.97;;;1.60;99.90;;;;;;5040794;28;20293;-74
2021/04/08 00:14:14;;;;;;;17.20;7.17;;;1.60;99.90;;;;;;5041294;28;20473;-74
2021/04/08 00:16:40;;;;;;;16.57;7.20;;;1.60;99.90;;;;;;5040391;28;20788;-75
2021/04/08 00:19:08;;;;;;;30.87;8.07;;;1.60;99.90;;;;;;5040517;28;20225;-75
2021/04/08 00:21:34;;;;;;;21.87;7.37;;;1.60;99.90;;;;;;5042569;28;20222;-72
2021/04/08 00:24:01;;;;;;;18.63;6.50;;;1.60;99.90;;;;;;5042163;28;21026;-76
2021/04/08 00:26:27;;;;;;;18.20;6.83;;;1.60;99.90;;;;;;5041852;28;20703;-76
2021/04/08 00:28:55;;;;;;;24.23;7.67;;;1.60;99.90;;;;;;5043028;28;20987;-76
2021/04/08 00:31:21;;;;;;;21.10;7.67;;;1.60;99.90;;;;;;5046849;28;20612;-77
2021/04/08 00:33:48;;;;;;;25.27;8.27;;;1.60;99.90;;;;;;5041786;28;20701;-74
2021/04/08 00:36:14;;;;;;;21.80;9.03;;;1.50;99.90;;;;;;5045000;28;20293;-74
2021/04/08 00:38:40;;;;;;;21.17;8.67;;;1.50;99.90;;;;;;5042425;28;20203;-75
2021/04/08 00:41:07;;;;;;;20.43;7.57;;;1.50;99.90;;;;;;5045040;28;20510;-75
2021/04/08 00:43:33;;;;;;;19.83;9.10;;;1.50;99.90;;;;;;5040096;28;20549;-75
2021/04/08 00:46:00;;;;;;;23.00;8.70;;;1.50;99.90;;;;;;5032953;28;20223;-75
2021/04/08 00:48:27;;;;;;;18.90;8.27;;;1.50;99.90;;;;;;5041238;28;20210;-75
2021/04/08 00:50:53;;;;;;;25.27;8.83;;;1.50;99.90;;;;;;5042637;28;20200;-77
2021/04/08 00:53:22;;;;;;;23.63;8.90;;;1.50;99.90;;;;;;5045802;28;20289;-75
2021/04/08 00:55:52;;;;;;;27.23;8.97;;;1.40;99.90;;;;;;5038671;28;20233;-74
2021/04/08 00:58:19;;;;;;;21.43;8.83;;;1.50;99.90;;;;;;5041124;28;20203;-75
2021/04/08 01:00:47;;;;;;;23.50;9.57;;;1.50;99.90;;;;;;5043170;28;20494;-74
2021/04/08 01:03:15;;;;;;;22.80;9.10;;;1.50;99.90;;;;;;5046789;28;20241;-74
2021/04/08 01:05:41;;;;;;;29.23;8.60;;;1.50;99.90;;;;;;5041672;28;20301;-75
2021/04/08 01:08:08;;;;;;;16.43;8.40;;;1.50;99.90;;;;;;5043236;28;20324;-78
2021/04/08 01:10:35;;;;;;;14.63;7.23;;;1.50;99.90;;;;;;5043701;28;20844;-76
2021/04/08 01:13:03;;;;;;;20.53;7.83;;;1.50;99.90;;;;;;5042849;28;20286;-74
2021/04/08 01:15:30;;;;;;;23.50;8.63;;;1.50;99.90;;;;;;5042686;28;20254;-76
2021/04/08 01:18:10;;;;;;;29.53;9.03;;;1.60;99.90;;;;;;5039163;28;20286;-75
2021/04/08 01:20:58;;;;;;;22.93;8.63;;;1.50;99.90;;;;;;5037617;28;20210;-76
2021/04/08 01:24:09;;;;;;;24.37;8.27;;;1.60;99.90;;;;;;5036481;28;20294;-77
2021/04/08 01:27:14;;;;;;;22.30;8.20;;;1.60;99.90;;;;;;5044395;28;20219;-75
2021/04/08 01:29:59;;;;;;;17.50;8.70;;;1.50;99.90;;;;;;5047337;28;20221;-78
2021/04/08 01:32:28;;;;;;;24.57;9.10;;;1.60;99.90;;;;;;5041845;28;20522;-75
2021/04/08 01:34:58;;;;;;;29.77;9.63;;;1.40;99.90;;;;;;5041112;28;20235;-76
2021/04/08 01:37:28;;;;;;;20.33;9.43;;;1.40;99.90;;;;;;5041327;28;20672;-74
2021/04/08 01:39:57;;;;;;;26.03;9.60;;;1.40;99.90;;;;;;5043513;28;20454;-75
2021/04/08 01:42:25;;;;;;;27.10;9.60;;;1.30;99.90;;;;;;5044813;28;20656;-74
2021/04/08 01:44:55;;;;;;;16.93;8.63;;;1.30;99.90;;;;;;5043838;28;20663;-74
2021/04/08 01:47:24;;;;;;;25.00;9.93;;;1.30;99.90;;;;;;5046414;28;20600;-74
2021/04/08 01:49:52;;;;;;;21.87;9.93;;;1.30;99.90;;;;;;5042127;28;20237;-75
2021/04/08 01:52:20;;;;;;;18.27;9.47;;;1.30;99.90;;;;;;5042178;28;20294;-75
2021/04/08 01:54:50;;;;;;;19.63;9.07;;;1.30;99.90;;;;;;5043817;28;20254;-75
2021/04/08 01:57:19;;;;;;;22.23;9.00;;;1.30;99.90;;;;;;5042156;28;20451;-74
2021/04/08 01:59:45;;;;;;;18.33;8.93;;;1.30;99.90;;;;;;5041555;28;20630;-75
2021/04/08 02:02:13;;;;;;;18.10;9.40;;;1.30;99.90;;;;;;5043449;28;20215;-77
2021/04/08 02:04:40;;;;;;;23.13;9.20;;;1.30;99.90;;;;;;5041566;28;20220;-74
2021/04/08 02:07:08;;;;;;;21.30;8.80;;;1.20;99.90;;;;;;5046219;28;20222;-74
2021/04/08 02:09:37;;;;;;;19.50;8.67;;;1.20;99.90;;;;;;5046740;28;20673;-76
2021/04/08 02:12:06;;;;;;;22.10;8.50;;;1.20;99.90;;;;;;5043673;28;20475;-74
2021/04/08 02:14:34;;;;;;;20.40;7.97;;;1.10;99.90;;;;;;5042739;28;20472;-74
2021/04/08 02:17:02;;;;;;;21.50;9.13;;;1.10;99.90;;;;;;5046109;28;20268;-76
2021/04/08 02:19:29;;;;;;;21.00;8.47;;;1.10;99.90;;;;;;5046253;28;20692;-75
2021/04/08 02:22:00;;;;;;;18.10;8.33;;;1.10;99.90;;;;;;5046795;28;20729;-73
2021/04/08 02:24:30;;;;;;;16.23;7.97;;;1.10;99.90;;;;;;5042846;28;20223;-73
2021/04/08 02:26:57;;;;;;;16.83;8.47;;;1.10;99.90;;;;;;5043808;28;20916;-73
2021/04/08 02:29:24;;;;;;;16.47;8.87;;;1.10;99.90;;;;;;5043658;28;20650;-74
2021/04/08 02:31:51;;;;;;;22.17;9.00;;;1.00;99.90;;;;;;5042585;28;20540;-75
2021/04/08 02:34:18;;;;;;;23.23;8.57;;;1.00;99.90;;;;;;5043420;28;20219;-73
2021/04/08 02:36:45;;;;;;;21.00;9.07;;;1.00;99.90;;;;;;5042999;28;21640;-75
2021/04/08 02:39:12;;;;;;;33.33;9.10;;;1.00;99.90;;;;;;5044107;28;20917;-73
2021/04/08 02:41:41;;;;;;;23.80;8.93;;;1.00;99.90;;;;;;5045783;28;20456;-72
2021/04/08 02:44:07;;;;;;;19.77;8.43;;;1.00;99.90;;;;;;5040317;28;20488;-76
2021/04/08 02:46:34;;;;;;;21.33;8.80;;;1.10;99.90;;;;;;5041972;28;20544;-74
2021/04/08 02:49:01;;;;;;;19.20;9.40;;;1.10;99.90;;;;;;5041837;28;20442;-73
2021/04/08 02:51:34;;;;;;;19.20;9.03;;;1.20;99.90;;;;;;5041667;28;20423;-77
2021/04/08 02:54:09;;;;;;;18.90;9.73;;;1.20;99.90;;;;;;5038244;28;20223;-73
2021/04/08 02:56:40;;;;;;;22.40;10.13;;;1.10;99.90;;;;;;5044103;28;20194;-74
2021/04/08 02:59:12;;;;;;;19.57;9.93;;;1.10;99.90;;;;;;5037518;28;20284;-73
2021/04/08 03:01:44;;;;;;;22.47;10.13;;;1.00;99.90;;;;;;5038349;28;20765;-74
2021/04/08 03:04:14;;;;;;;22.80;10.43;;;1.10;99.90;;;;;;5041947;28;20543;-74
2021/04/08 03:06:41;;;;;;;30.20;10.97;;;1.00;99.90;;;;;;5041954;28;20240;-74
2021/04/08 03:09:09;;;;;;;19.83;10.20;;;0.90;99.90;;;;;;5041674;28;20545;-76
2021/04/08 03:11:37;;;;;;;22.43;10.37;;;0.90;99.90;;;;;;5043211;28;20461;-73
2021/04/08 03:14:07;;;;;;;22.27;10.30;;;0.90;99.90;;;;;;5039588;28;20508;-73
2021/04/08 03:16:38;;;;;;;22.47;11.03;;;1.00;99.90;;;;;;5040208;28;20299;-73
2021/04/08 03:19:06;;;;;;;23.90;11.63;;;0.90;99.90;;;;;;5041650;28;20963;-74
2021/04/08 03:21:34;;;;;;;21.47;10.40;;;0.90;99.90;;;;;;5038806;28;20973;-74
2021/04/08 03:24:01;;;;;;;25.90;10.13;;;0.80;99.90;;;;;;5038541;28;20476;-73
2021/04/08 03:26:30;;;;;;;22.57;10.33;;;0.80;99.90;;;;;;5037588;28;20478;-74
2021/04/08 03:28:57;;;;;;;22.73;10.00;;;0.80;99.90;;;;;;5038733;28;20546;-73
2021/04/08 03:31:24;;;;;;;26.60;10.13;;;0.90;99.90;;;;;;5037841;28;20449;-76
2021/04/08 03:33:53;;;;;;;23.57;10.37;;;0.90;99.90;;;;;;5038899;28;20824;-73
2021/04/08 03:36:20;;;;;;;24.90;10.40;;;0.90;99.90;;;;;;5038949;28;20210;-73
2021/04/08 03:38:48;;;;;;;24.80;10.40;;;0.90;99.90;;;;;;5040129;28;21284;-73
2021/04/08 03:41:17;;;;;;;21.33;10.20;;;0.90;99.90;;;;;;5041894;28;20504;-73
2021/04/08 03:43:44;;;;;;;21.23;9.67;;;0.80;99.90;;;;;;5042284;28;20776;-75
2021/04/08 03:46:12;;;;;;;22.53;10.30;;;0.90;99.90;;;;;;5043323;28;20302;-73
2021/04/08 03:48:41;;;;;;;26.37;9.80;;;0.90;99.90;;;;;;5037429;28;20465;-72
2021/04/08 03:51:09;;;;;;;27.50;10.07;;;0.80;99.90;;;;;;5038933;28;20974;-73
2021/04/08 03:53:38;;;;;;;27.73;9.90;;;0.80;99.90;;;;;;5041794;28;20445;-74
2021/04/08 03:56:06;;;;;;;24.40;10.57;;;0.70;99.90;;;;;;5040591;28;20499;-75
2021/04/08 03:58:33;;;;;;;22.77;10.47;;;0.60;99.90;;;;;;5038924;28;20208;-73
2021/04/08 04:01:00;;;;;;;37.03;11.83;;;0.60;99.90;;;;;;5040502;28;20214;-72
2021/04/08 04:03:27;;;;;;;24.57;10.63;;;0.50;99.90;;;;;;5043723;28;20556;-72
2021/04/08 04:05:54;;;;;;;26.33;11.07;;;0.50;99.90;;;;;;5042721;28;20471;-73
2021/04/08 04:08:21;;;;;;;19.53;10.00;;;0.50;99.90;;;;;;5040823;28;21060;-74
2021/04/08 04:10:48;;;;;;;25.30;11.37;;;0.50;99.90;;;;;;5040464;28;20556;-73
2021/04/08 04:13:16;;;;;;;28.13;11.27;;;0.60;99.90;;;;;;5038838;28;21022;-74
2021/04/08 04:15:48;;;;;;;29.80;10.60;;;0.60;99.90;;;;;;5045279;28;20480;-75
2021/04/08 04:18:17;;;;;;;21.83;9.47;;;0.60;99.90;;;;;;5038549;28;20459;-73
2021/04/08 04:20:44;;;;;;;25.63;11.17;;;0.70;99.90;;;;;;5039663;28;20469;-74
2021/04/08 04:23:12;;;;;;;28.03;10.57;;;0.70;99.90;;;;;;5031163;28;20338;-76
2021/04/08 04:25:39;;;;;;;24.33;9.90;;;0.70;99.90;;;;;;5030956;28;20474;-72
2021/04/08 04:28:06;;;;;;;26.33;10.40;;;0.70;99.90;;;;;;5028955;28;20646;-73
2021/04/08 04:30:32;;;;;;;27.67;10.20;;;0.80;99.90;;;;;;5029236;28;20523;-73
2021/04/08 04:32:59;;;;;;;20.20;10.13;;;0.70;99.90;;;;;;5071431;22;20502;-72
2021/04/08 04:35:25;;;;;;;25.30;10.00;;;0.70;99.90;;;;;;5055445;28;20567;-73
2021/04/08 04:37:51;;;;;;;22.17;9.77;;;0.70;99.90;;;;;;5047605;28;20943;-72
2021/04/08 04:40:19;;;;;;;23.90;9.93;;;0.60;99.90;;;;;;5047281;28;20672;-73
2021/04/08 04:42:46;;;;;;;28.63;10.50;;;0.60;99.90;;;;;;5051297;28;20297;-73
2021/04/08 04:45:15;;;;;;;25.23;10.40;;;0.60;99.90;;;;;;5048411;28;20245;-73
2021/04/08 04:47:41;;;;;;;26.40;10.57;;;0.70;99.90;;;;;;5049746;28;20262;-73
2021/04/08 04:50:10;;;;;;;34.67;11.50;;;0.70;99.90;;;;;;5049110;28;20211;-73
2021/04/08 04:52:37;;;;;;;27.13;10.80;;;0.80;99.90;;;;;;5057924;28;20241;-72
2021/04/08 04:55:04;;;;;;;23.07;10.33;;;0.80;99.90;;;;;;5071180;28;20229;-72
2021/04/08 04:57:30;;;;;;;22.77;9.83;;;0.80;99.90;;;;;;5060382;28;20541;-73
2021/04/08 04:59:58;;;;;;;31.43;10.87;;;0.80;99.90;;;;;;5053767;28;20456;-72
2021/04/08 05:02:24;;;;;;;22.70;10.90;;;0.80;99.90;;;;;;5055241;28;20456;-73
2021/04/08 05:04:50;;;;;;;31.83;10.03;;;0.70;99.90;;;;;;5050788;28;20606;-74
2021/04/08 05:07:17;;;;;;;28.83;10.13;;;0.80;99.90;;;;;;5050311;28;20581;-73
2021/04/08 05:09:43;;;;;;;25.43;10.17;;;0.80;99.90;;;;;;5052023;28;20548;-73
2021/04/08 05:12:10;;;;;;;27.93;10.93;;;0.90;99.90;;;;;;5052639;28;20505;-73
2021/04/08 05:14:37;;;;;;;26.20;10.33;;;1.00;99.90;;;;;;5055011;28;20240;-74
2021/04/08 05:17:04;;;;;;;26.70;10.77;;;1.00;99.90;;;;;;5057686;28;20289;-73
2021/04/08 05:19:31;;;;;;;24.97;10.70;;;1.10;99.90;;;;;;5059015;28;20324;-73
2021/04/08 05:21:57;;;;;;;28.00;10.43;;;1.30;99.90;;;;;;5060923;28;20210;-73
2021/04/08 05:24:24;;;;;;;27.93;10.80;;;1.40;99.90;;;;;;5060684;28;20599;-73
2021/04/08 05:26:50;;;;;;;25.87;10.87;;;1.60;99.90;;;;;;5059175;28;20309;-73
2021/04/08 05:29:16;;;;;;;24.43;11.67;;;1.90;99.90;;;;;;5059081;28;20560;-73
2021/04/08 05:31:43;;;;;;;30.63;11.03;;;2.10;99.90;;;;;;5061582;28;20207;-73
2021/04/08 05:34:10;;;;;;;22.83;11.13;;;2.20;99.90;;;;;;5057692;28;20253;-73
2021/04/08 05:36:36;;;;;;;25.70;11.03;;;2.30;99.90;;;;;;5056894;28;20263;-73
2021/04/08 05:39:04;;;;;;;22.33;10.70;;;2.40;99.90;;;;;;5060934;28;20887;-73
2021/04/08 05:41:31;;;;;;;30.40;11.47;;;2.50;99.90;;;;;;5060829;28;20281;-73
2021/04/08 05:43:57;;;;;;;29.53;11.00;;;2.50;99.90;;;;;;5060121;28;20238;-73
2021/04/08 05:46:24;;;;;;;33.43;11.20;;;2.40;99.90;;;;;;5060317;28;20627;-73
2021/04/08 05:48:50;;;;;;;21.80;10.37;;;2.30;99.90;;;;;;5062365;28;20344;-73
2021/04/08 05:51:17;;;;;;;25.77;11.20;;;2.20;99.90;;;;;;5063002;28;20218;-73
2021/04/08 05:53:44;;;;;;;24.70;10.40;;;2.30;99.90;;;;;;5065045;28;20760;-73
2021/04/08 05:56:10;;;;;;;28.13;11.33;;;2.10;99.90;;;;;;5062907;28;20226;-73
2021/04/08 05:58:37;;;;;;;24.97;11.07;;;2.10;99.90;;;;;;5075486;28;20205;-73
2021/04/08 06:01:04;;;;;;;28.03;10.43;;;2.00;99.90;;;;;;5062043;28;20234;-73
2021/04/08 06:03:30;;;;;;;26.70;11.33;;;2.10;99.90;;;;;;5068626;28;21670;-73
2021/04/08 06:05:57;;;;;;;27.87;10.70;;;2.20;99.90;;;;;;5075527;28;20300;-72
2021/04/08 06:08:24;;;;;;;30.40;10.63;;;2.30;99.90;;;;;;5065290;28;20256;-73
2021/04/08 06:10:50;;;;;;;26.40;10.83;;;2.40;99.90;;;;;;5062058;28;20244;-73
2021/04/08 06:13:17;;;;;;;32.77;11.37;;;2.50;99.90;;;;;;5058754;28;20203;-73
2021/04/08 06:15:43;;;;;;;24.33;10.63;;;2.60;99.90;;;;;;5059560;28;20225;-73
2021/04/08 06:18:10;;;;;;;20.73;10.27;;;2.60;99.90;;;;;;5059065;28;20242;-74
2021/04/08 06:20:36;;;;;;;23.33;10.30;;;2.60;99.90;;;;;;5059473;28;20203;-73
2021/04/08 06:23:04;;;;;;;24.07;10.37;;;2.70;99.90;;;;;;5063611;28;20289;-73
2021/04/08 06:25:32;;;;;;;19.93;10.60;;;2.60;99.90;;;;;;5060335;28;20324;-74
2021/04/08 06:27:58;;;;;;;21.97;10.10;;;2.60;99.90;;;;;;5060252;28;20779;-73
2021/04/08 06:30:25;;;;;;;24.37;9.07;;;2.60;99.90;;;;;;5059051;28;20597;-73
2021/04/08 06:32:52;;;;;;;22.87;9.23;;;2.50;99.90;;;;;;5059903;28;20238;-73
2021/04/08 06:35:19;;;;;;;24.10;9.70;;;2.50;99.90;;;;;;5059283;28;20261;-73
2021/04/08 06:37:46;;;;;;;20.37;8.70;;;2.60;99.90;;;;;;5057959;28;20198;-73
2021/04/08 06:40:13;;;;;;;17.60;8.90;;;2.70;99.90;;;;;;5057866;28;20235;-73
2021/04/08 06:42:42;;;;;;;20.13;8.40;;;2.80;99.90;;;;;;5057195;28;20598;-73
2021/04/08 06:45:10;;;;;;;16.57;7.83;;;2.80;99.90;;;;;;5060833;28;20309;-73
2021/04/08 06:47:47;;;;;;;21.50;9.23;;;2.80;99.90;;;;;;5060068;28;20228;-73
2021/04/08 06:50:14;;;;;;;19.77;8.43;;;2.80;99.90;;;;;;5063466;28;20325;-73
2021/04/08 06:52:42;;;;;;;24.17;8.60;;;2.80;99.90;;;;;;5060255;28;20670;-73
2021/04/08 06:55:10;;;;;;;24.57;8.97;;;2.80;99.90;;;;;;5057615;28;20272;-73
2021/04/08 06:57:40;;;;;;;22.83;8.17;;;2.70;99.90;;;;;;5061249;28;20294;-74
2021/04/08 07:00:09;;;;;;;20.40;7.80;;;2.80;99.90;;;;;;5059646;28;20207;-74
2021/04/08 07:02:37;;;;;;;13.77;7.43;;;3.00;99.90;;;;;;5060373;28;20221;-73
2021/04/08 07:05:05;;;;;;;29.73;8.03;;;3.00;99.90;;;;;;5056750;28;20313;-73
2021/04/08 07:07:32;;;;;;;17.17;7.93;;;3.10;99.90;;;;;;5059072;28;20236;-73
2021/04/08 07:09:58;;;;;;;20.03;8.40;;;3.30;99.90;;;;;;5061485;28;20318;-74
2021/04/08 07:12:25;;;;;;;20.97;8.60;;;3.50;99.90;;;;;;5063799;28;20245;-73
2021/04/08 07:14:53;;;;;;;18.03;8.20;;;3.70;99.90;;;;;;5080158;28;20246;-71
2021/04/08 07:17:21;;;;;;;15.90;7.70;;;4.00;99.90;;;;;;5075433;28;20211;-75
2021/04/08 07:19:48;;;;;;;16.03;8.67;;;4.20;99.90;;;;;;5057824;28;20968;-74
2021/04/08 07:22:15;;;;;;;20.10;8.63;;;4.40;99.90;;;;;;5058562;28;20234;-74
2021/04/08 07:24:42;;;;;;;22.90;9.20;;;4.30;99.90;;;;;;5058288;28;20765;-74
2021/04/08 07:27:10;;;;;;;21.00;8.50;;;4.40;99.90;;;;;;5056678;28;20222;-74
2021/04/08 07:30:01;;;;;;;26.30;10.10;;;4.40;99.90;;;;;;5054239;28;20237;-74
2021/04/08 07:32:30;;;;;;;23.93;10.43;;;4.40;99.90;;;;;;5053925;28;20214;-73
2021/04/08 07:34:59;;;;;;;18.27;8.83;;;4.50;99.90;;;;;;5048187;28;20226;-73
2021/04/08 07:37:30;;;;;;;28.43;9.77;;;4.50;99.90;;;;;;5049418;28;20656;-73
2021/04/08 07:39:58;;;;;;;22.63;8.90;;;4.60;99.90;;;;;;5051067;28;20631;-73
2021/04/08 07:42:27;;;;;;;20.87;9.10;;;4.70;99.90;;;;;;5051381;28;20764;-73
2021/04/08 07:44:55;;;;;;;21.47;7.47;;;5.00;99.90;;;;;;5059339;28;20313;-72
2021/04/08 07:47:27;;;;;;;76.73;36.67;;;5.30;99.90;;;;;;5049683;28;20791;-72
2021/04/08 07:49:56;;;;;;;23.77;9.07;;;5.60;99.90;;;;;;5047611;28;20221;-72
2021/04/08 07:52:26;;;;;;;17.57;7.57;;;6.80;99.90;;;;;;5045943;28;20640;-72
2021/04/08 07:55:21;;;;;;;16.67;7.80;;;7.80;99.90;;;;;;5046715;28;20245;-72
2021/04/08 07:58:06;;;;;;;17.83;7.40;;;8.40;99.90;;;;;;5031160;28;20198;-72
2021/04/08 08:00:34;;;;;;;18.77;7.40;;;8.20;99.90;;;;;;5055229;28;20297;-72
2021/04/08 08:03:03;;;;;;;18.87;7.33;;;7.90;99.90;;;;;;5054783;28;20202;-72
2021/04/08 08:05:32;;;;;;;15.70;6.80;;;8.30;99.90;;;;;;5049971;28;20250;-72
2021/04/08 08:08:10;;;;;;;15.13;6.30;;;8.90;99.90;;;;;;5047926;28;20490;-72
2021/04/08 08:10:39;;;;;;;12.57;6.77;;;9.70;99.90;;;;;;5045905;28;20209;-72
2021/04/08 08:13:08;;;;;;;15.33;7.03;;;9.60;99.90;;;;;;5047921;28;20203;-72
2021/04/08 08:15:41;;;;;;;15.10;6.27;;;9.00;99.90;;;;;;5045797;28;20277;-72
2021/04/08 08:18:24;;;;;;;25.43;13.60;;;9.00;99.90;;;;;;5047794;28;20196;-70
2021/04/08 08:20:51;;;;;;;13.27;6.10;;;10.50;99.90;;;;;;5047263;28;20305;-74
2021/04/08 08:23:34;;;;;;;19.27;7.20;;;10.20;99.90;;;;;;5055164;28;20221;-77
2021/04/08 08:26:33;;;;;;;14.50;6.50;;;9.90;99.90;;;;;;5075186;28;20212;-76
2021/04/08 08:29:01;;;;;;;12.20;5.77;;;11.40;99.90;;;;;;5043981;28;20205;-72
2021/04/08 08:31:40;;;;;;;14.90;6.17;;;12.50;99.90;;;;;;5045644;28;20256;-74
2021/04/08 08:34:09;;;;;;;13.53;5.10;;;13.20;99.90;;;;;;5056193;28;20695;-73
2021/04/08 08:36:38;;;;;;;11.33;4.50;;;13.70;99.90;;;;;;5055131;28;21238;-73
2021/04/08 08:39:08;;;;;;;10.70;4.77;;;14.50;99.90;;;;;;5047091;28;20527;-73
2021/04/08 08:41:35;;;;;;;12.77;5.50;;;13.70;99.90;;;;;;5054574;28;20249;-72
2021/04/08 08:44:03;;;;;;;10.00;4.90;;;13.20;99.90;;;;;;5057211;28;20233;-72
2021/04/08 08:46:31;;;;;;;16.97;7.30;;;;;;;;;;5054835;28;20294;-70
2021/04/08 08:48:59;;;;;;;14.47;5.43;;;12.90;99.90;;;;;;5054398;28;20206;-72
2021/04/08 08:51:28;;;;;;;13.63;6.37;;;12.50;99.90;;;;;;5052924;28;20305;-72
2021/04/08 08:53:56;;;;;;;10.83;4.50;;;13.40;99.90;;;;;;5057314;28;20304;-73
2021/04/08 08:56:25;;;;;;;11.37;5.23;;;13.80;99.90;;;;;;5057401;28;20640;-73
2021/04/08 08:58:53;;;;;;;9.47;4.50;;;13.90;99.90;;;;;;5056436;28;20194;-73
2021/04/08 09:01:20;;;;;;;11.27;4.70;;;13.30;99.90;;;;;;5055708;28;20301;-71
2021/04/08 09:03:47;;;;;;;18.13;4.73;;;;;;;;;;5055855;28;20313;-73
2021/04/08 09:06:14;;;;;;;13.00;4.00;;;;;;;;;;5056510;28;20210;-71
2021/04/08 09:08:47;;;;;;;9.20;4.40;;;;;;;;;;5053566;28;20679;-70
2021/04/08 09:11:19;;;;;;;10.87;3.93;;;;;;;;;;5057477;28;20610;-73
2021/04/08 09:13:46;;;;;;;10.07;4.50;;;;;;;;;;5056020;28;20323;-71
2021/04/08 09:16:16;;;;;;;13.40;4.57;;;;;;;;;;5057084;28;20202;-72
2021/04/08 09:18:56;;;;;;;11.80;4.50;;;;;;;;;;5052396;28;20330;-73
2021/04/08 09:21:23;;;;;;;19.00;12.73;;;;;;;;;;5055960;28;20198;-73
2021/04/08 09:24:06;;;;;;;10.63;4.57;;;;;;;;;;5055480;28;20222;-71
2021/04/08 09:26:38;;;;;;;12.37;4.20;;;;;;;;;;5056614;28;20289;-72
2021/04/08 09:29:05;;;;;;;8.97;3.80;;;;;;;;;;5055957;28;20579;-72
2021/04/08 09:31:32;;;;;;;14.57;3.90;;;;;;;;;;5058084;28;20572;-72
2021/04/08 09:34:00;;;;;;;11.10;4.37;;;;;;;;;;5076604;28;20227;-73
2021/04/08 09:36:36;;;;;;;8.83;3.90;;;;;;;;;;5071514;28;20213;-73
2021/04/08 09:39:21;;;;;;;10.17;3.83;;;;;;;;;;5050372;28;20209;-73
2021/04/08 09:41:51;;;;;;;12.80;3.97;;;;;;;;;;5056098;28;20194;-73
2021/04/08 09:44:19;;;;;;;10.17;4.30;;;;;;;;;;5056871;28;20595;-73
2021/04/08 09:46:51;;;;;;;8.63;4.17;;;;;;;;;;5055105;28;20215;-73
2021/04/08 09:49:36;;;;;;;6.17;3.00;;;;;;;;;;5057292;28;20605;-73
2021/04/08 09:52:05;;;;;;;10.17;3.63;;;;;;;;;;5056614;28;20341;-73
2021/04/08 09:54:40;;;;;;;7.80;3.70;;;;;;;;;;5054970;28;20238;-73
2021/04/08 09:57:08;;;;;;;11.23;3.70;;;;;;;;;;5055502;28;21104;-73
2021/04/08 09:59:58;;;;;;;8.83;3.43;;;;;;;;;;5053798;28;20630;-73
2021/04/08 10:02:25;;;;;;;10.07;3.30;;;;;;;;;;5055637;28;20285;-73
2021/04/08 10:05:02;;;;;;;8.53;3.90;;;;;;;;;;5052191;28;20702;-73
2021/04/08 10:07:29;;;;;;;12.17;5.00;;;;;;;;;;5056980;28;20241;-73
2021/04/08 10:09:56;;;;;;;12.70;4.03;;;;;;;;;;5055859;28;20198;-73
2021/04/08 10:12:33;;;;;;;8.00;3.77;;;;;;;;;;5056897;28;20301;-73
2021/04/08 10:15:00;;;;;;;5.07;3.17;;;;;;;;;;5058305;28;20235;-73
2021/04/08 10:17:45;;;;;;;8.23;3.83;;;;;;;;;;5058723;28;20239;-73
2021/04/08 10:20:12;;;;;;;9.20;3.93;;;;;;;;;;5059986;28;20466;-73
2021/04/08 10:22:40;;;;;;;10.27;3.67;;;;;;;;;;5056964;28;20619;-73
2021/04/08 10:25:07;;;;;;;11.70;3.70;;;;;;;;;;5058642;28;20226;-73
2021/04/08 10:27:35;;;;;;;10.37;3.70;;;;;;;;;;5056860;28;20227;-73
2021/04/08 10:30:11;;;;;;;11.03;4.07;;;;;;;;;;5059018;28;20210;-73
2021/04/08 10:32:38;;;;;;;6.70;3.60;;;;;;;;;;5058472;28;20240;-73
2021/04/08 10:35:06;;;;;;;12.10;4.27;;;;;;;;;;5060102;28;20244;-73
2021/04/08 10:37:32;;;;;;;5.97;3.43;;;;;;;;;;5058693;28;20202;-73
2021/04/08 10:39:59;;;;;;;9.63;3.63;;;;;;;;;;5055121;28;20211;-73
2021/04/08 10:42:26;;;;;;;11.07;4.10;;;;;;;;;;5062011;28;20226;-73
2021/04/08 10:44:55;;;;;;;13.83;4.20;;;;;;;;;;5081649;28;20316;-72
2021/04/08 10:47:23;;;;;;;7.70;4.13;;;;;;;;;;5065149;28;20222;-73
2021/04/08 10:49:50;;;;;;;16.73;6.73;;;;;;;;;;5054661;28;20766;-73
2021/04/08 10:52:18;;;;;;;12.80;4.80;;;;;;;;;;5053922;28;20297;-72
2021/04/08 10:54:46;;;;;;;68.63;29.03;;;;;;;;;;5054430;28;20305;-73
2021/04/08 10:57:14;;;;;;;15.93;9.87;;;;;;;;;;5054120;28;20205;-73
2021/04/08 10:59:42;;;;;;;14.90;5.60;;;;;;;;;;5055796;28;20672;-73
2021/04/08 11:02:20;;;;;;;11.90;5.83;;;;;;;;;;5054763;28;20230;-73
2021/04/08 11:04:47;;;;;;;6.70;3.57;;;;;;;;;;5055128;28;20652;-73
2021/04/08 11:07:13;;;;;;;26.07;16.90;;;;;;;;;;5055440;28;20311;-73
2021/04/08 11:09:40;;;;;;;14.13;7.77;;;;;;;;;;5060060;28;20300;-73
2021/04/08 11:12:21;;;;;;;9.23;5.57;;;;;;;;;;5057521;28;20206;-72
2021/04/08 11:14:49;;;;;;;10.77;6.97;;;;;;;;;;5054764;28;20261;-72
2021/04/08 11:17:16;;;;;;;5.80;3.60;;;;;;;;;;5053456;28;20237;-73
2021/04/08 11:19:44;;;;;;;7.00;3.07;;;;;;;;;;5055363;28;20297;-73
2021/04/08 11:22:12;;;;;;;4.47;2.60;;;;;;;;;;5054016;28;20226;-73
2021/04/08 11:24:39;;;;;;;5.53;2.50;;;;;;;;;;5056563;28;20704;-73
2021/04/08 11:27:06;;;;;;;8.23;3.20;;;;;;;;;;5053600;28;20246;-73
2021/04/08 11:29:33;;;;;;;5.87;2.33;;;;;;;;;;5054437;28;20213;-73
2021/04/08 11:32:00;;;;;;;6.93;3.07;;;;;;;;;;5056220;28;20249;-73
2021/04/08 11:34:27;;;;;;;8.93;2.80;;;;;;;;;;5056060;28;20222;-73
2021/04/08 11:36:55;;;;;;;7.83;3.17;;;;;;;;;;5056897;28;20280;-72
2021/04/08 11:39:22;;;;;;;16.77;11.50;;;;;;;;;;5053643;28;20739;-71
2021/04/08 11:41:48;;;;;;;6.37;3.03;;;;;;;;;;5053623;28;20206;-72
2021/04/08 11:44:25;;;;;;;4.97;2.33;;;;;;;;;;5055638;28;20241;-72
2021/04/08 11:46:51;;;;;;;6.03;2.10;;;;;;;;;;5053541;28;20208;-71
2021/04/08 11:49:19;;;;;;;7.50;2.43;;;;;;;;;;5063466;28;20565;-71
2021/04/08 11:51:48;;;;;;;6.50;2.87;;;;;;;;;;5067621;28;20210;-71
2021/04/08 11:54:16;;;;;;;4.90;2.30;;;;;;;;;;5060647;28;20233;-71
2021/04/08 11:56:44;;;;;;;5.63;3.00;;;;;;;;;;5055528;28;20202;-71
2021/04/08 11:59:12;;;;;;;6.90;2.40;;;;;;;;;;5056301;28;20230;-71
2021/04/08 12:01:40;;;;;;;9.67;2.60;;;;;;;;;;5061612;28;20208;-71
2021/04/08 12:04:14;;;;;;;10.33;2.30;;;;;;;;;;5057222;28;20555;-71
2021/04/08 12:06:42;;;;;;;4.77;2.30;;;;;;;;;;5058389;28;20210;-71
2021/04/08 12:09:11;;;;;;;8.33;2.90;;;;;;;;;;5057451;28;20224;-72
2021/04/08 12:11:48;;;;;;;5.77;2.80;;;;;;;;;;5054850;28;20207;-72
2021/04/08 12:14:14;;;;;;;6.03;2.60;;;;;;;;;;5054495;28;20884;-72
2021/04/08 12:16:41;;;;;;;10.87;3.10;;;;;;;;;;5055984;28;20477;-72
2021/04/08 12:19:08;;;;;;;4.83;2.60;;;;;;;;;;5053991;28;20296;-72
2021/04/08 12:21:35;;;;;;;4.90;3.00;;;;;;;;;;5054578;28;20234;-71
2021/04/08 12:24:09;;;;;;;9.50;3.30;;;;;;;;;;5058972;28;20258;-71
2021/04/08 12:26:37;;;;;;;6.63;2.90;;;;;;;;;;5054199;28;20683;-71
2021/04/08 12:29:05;;;;;;;7.83;2.60;;;;;;;;;;5056031;28;20229;-72
2021/04/08 12:31:32;;;;;;;6.23;2.63;;;;;;;;;;5053406;28;20442;-72
2021/04/08 12:33:58;;;;;;;4.93;2.53;;;;;;;;;;5054870;28;20308;-71
2021/04/08 12:36:25;;;;;;;8.97;2.70;;;;;;;;;;5057545;28;20237;-71
2021/04/08 12:38:52;;;;;;;8.03;2.73;;;;;;;;;;5052851;28;20282;-73
2021/04/08 12:41:19;;;;;;;7.33;2.77;;;;;;;;;;5051925;28;20202;-73
2021/04/08 12:43:45;;;;;;;7.20;2.90;;;;;;;;;;5056447;28;20203;-73
2021/04/08 12:46:13;;;;;;;8.73;3.50;;;;;;;;;;5058381;28;20582;-73
2021/04/08 12:48:40;;;;;;;9.23;2.73;;;;;;;;;;5050990;28;20595;-75
2021/04/08 12:51:06;;;;;;;4.77;2.60;;;;;;;;;;5052506;28;20730;-76
2021/04/08 12:53:33;;;;;;;4.97;2.60;;;;;;;;;;5056850;28;20293;-71
2021/04/08 12:56:00;;;;;;;8.17;2.70;;;;;;;;;;5056077;28;20206;-71
2021/04/08 12:58:27;;;;;;;12.00;4.63;;;;;;;;;;5057280;28;20230;-71
2021/04/08 13:00:53;;;;;;;7.53;2.80;;;;;;;;;;5067816;28;20203;-71
2021/04/08 13:03:21;;;;;;;5.17;2.60;;;;;;;;;;5068837;28;20207;-71
2021/04/08 13:05:48;;;;;;;8.60;3.60;;;;;;;;;;5057189;28;20591;-71
2021/04/08 13:08:14;;;;;;;5.67;2.87;;;;;;;;;;5053889;28;20313;-71
2021/04/08 13:10:41;;;;;;;11.73;2.80;;;;;;;;;;5057956;28;20210;-71
2021/04/08 13:13:09;;;;;;;6.00;3.10;;;;;;;;;;5058993;28;20206;-71
2021/04/08 13:15:36;;;;;;;9.93;2.93;;;;;;;;;;5058300;28;20222;-71
2021/04/08 13:18:02;;;;;;;6.23;2.90;;;;;;;;;;5056762;28;20289;-71
2021/04/08 13:20:32;;;;;;;6.83;2.77;;;;;;;;;;5058910;28;20208;-71
2021/04/08 13:23:01;;;;;;;9.87;4.13;;;;;;;;;;5057239;28;20563;-71
2021/04/08 13:25:27;;;;;;;14.40;5.00;;;;;;;;;;5059177;28;20686;-72
2021/04/08 13:27:54;;;;;;;9.93;3.17;;;;;;;;;;5056005;28;20223;-72